CMA CGM Tosca — FMEL — position and weather

sailwx.info

Track history (hours):
 
Tides and Currents Weather Stations Pressure Air Temp Water Temp Dewpoint Dewpoint Depression Visibility Wind Speed Wind Dir Waves Ship Positions

CMA CGM Tosca

Last reported at 2018-Feb-19 16:00 UTC. Time now 2018-Feb-19 16:08 UTC.
Position N 41°21' E 002°27'.

Length 334 m; draft 12.5 m.

Type: Cargo ship. MMSI: 228335900.

Date/timePositionNaut miles runAvg speedWind from/ knotsBaromVisibWave heightAir tempDewpointWater temp
2018-Feb-19 16:00N 41°21' E 002°27'816.8
2018-Feb-19 15:30N 41°23' E 002°37'28216.2
2018-Feb-18 22:08N 43°26' E 008°22'216.3
2018-Feb-18 22:00N 43°27' E 008°24'816.1
2018-Feb-18 21:30N 43°31' E 008°34'816.0
2018-Feb-18 21:00N 43°35' E 008°44'816.0
2018-Feb-18 20:30N 43°38' E 008°54'815.9
2018-Feb-18 20:00N 43°42' E 009°03'816.2
2018-Feb-18 19:30N 43°46' E 009°13'816.7
2018-Feb-18 19:00N 43°49' E 009°24'816.9
2018-Feb-18 18:30N 43°54' E 009°34'917.3
2018-Feb-18 18:00N 43°59' E 009°44'713.9
2018-Feb-18 17:31N 44°02' E 009°52'5 9.4
2018-Feb-18 17:00N 44°06' E 009°51'0 0.3
2018-Feb-18 16:28N 44°06' E 009°51'0 0.0
2018-Feb-18 15:58N 44°06' E 009°51'0 0.0
2018-Feb-18 15:28N 44°06' E 009°51'0 0.0
2018-Feb-18 14:58N 44°06' E 009°51'0 0.0
2018-Feb-18 14:28N 44°06' E 009°51'0 0.0
2018-Feb-18 13:58N 44°06' E 009°51'0 0.0
2018-Feb-18 13:28N 44°06' E 009°51'0 0.0
2018-Feb-18 12:58N 44°06' E 009°51'0 0.0
2018-Feb-18 12:28N 44°06' E 009°51'0 0.0
2018-Feb-18 11:58N 44°06' E 009°51'0 0.0
2018-Feb-18 11:28N 44°06' E 009°51'0 0.0
2018-Feb-18 10:58N 44°06' E 009°51'0 0.0
2018-Feb-18 10:28N 44°06' E 009°51'0 0.0
2018-Feb-18 09:58N 44°06' E 009°51'0 0.0
2018-Feb-18 09:28N 44°06' E 009°51'0 0.0
2018-Feb-18 08:58N 44°06' E 009°51'0 0.0
2018-Feb-18 08:28N 44°06' E 009°51'0 0.0
2018-Feb-18 07:58N 44°06' E 009°51'0 0.0
2018-Feb-18 07:28N 44°06' E 009°51'0 0.0
2018-Feb-18 06:58N 44°06' E 009°51'0 0.0
2018-Feb-18 06:28N 44°06' E 009°51'0 0.0
2018-Feb-18 05:58N 44°06' E 009°51'0 0.0
2018-Feb-18 05:28N 44°06' E 009°51'0 0.0
2018-Feb-18 04:58N 44°06' E 009°51'0 0.0
2018-Feb-18 04:28N 44°06' E 009°51'0 0.0
2018-Feb-18 03:58N 44°06' E 009°51'0 0.0
2018-Feb-18 03:28N 44°06' E 009°51'0 0.0
2018-Feb-18 02:58N 44°06' E 009°51'0 0.0
2018-Feb-18 02:28N 44°06' E 009°51'0 1.0
2018-Feb-18 02:00N 44°06' E 009°51'3 6.1
2018-Feb-18 01:30N 44°03' E 009°52'1 3.0
2018-Feb-18 01:00N 44°02' E 009°54'0 0.7
2018-Feb-18 00:30N 44°02' E 009°54'2 3.7
2018-Feb-18 00:00N 44°01' E 009°56'1 2.5
2018-Feb-17 23:30N 43°60' E 009°57'0 0.5
2018-Feb-17 23:00N 43°59' E 009°56'1 2.5
2018-Feb-17 22:30N 43°58' E 009°56'510.5
2018-Feb-17 22:01N 43°53' E 009°53'714.5
2018-Feb-17 21:31N 43°47' E 009°50'714.7
2018-Feb-17 21:01N 43°39' E 009°48'714.6
2018-Feb-17 20:31N 43°32' E 009°45'714.8
2018-Feb-17 20:01N 43°25' E 009°43'714.8
2018-Feb-17 19:31N 43°18' E 009°42'815.0
2018-Feb-17 19:01N 43°10' E 009°40'714.9
2018-Feb-17 18:31N 43°03' E 009°39'2315.1
2018-Feb-17 16:57N 42°40' E 009°48'715.5
2018-Feb-17 16:30N 42°34' E 009°51'43416.2
2018-Feb-16 13:39N 36°01' E 013°48'216.5
2018-Feb-16 13:30N 35°59' E 013°51'916.5
2018-Feb-16 12:56N 35°55' E 014°01'716.6
2018-Feb-16 12:30N 35°50' E 014°08'817.2
2018-Feb-16 12:01N 35°47' E 014°18'917.2
2018-Feb-16 11:30N 35°44' E 014°28'612.3
2018-Feb-16 10:59N 35°48' E 014°34'2 0.1
2018-Feb-15 19:57N 35°49' E 014°33'1 1.4
2018-Feb-15 19:30N 35°49' E 014°33'3 5.2
2018-Feb-15 19:00N 35°47' E 014°36'0 0.6
2018-Feb-15 18:30N 35°47' E 014°36'0 1.0
2018-Feb-15 18:00N 35°47' E 014°36'2 4.8
2018-Feb-15 17:30N 35°45' E 014°38'3 6.7
2018-Feb-15 17:00N 35°43' E 014°41'1 2.3
2018-Feb-15 16:29N 35°42' E 014°42'1 1.7
2018-Feb-15 16:00N 35°43' E 014°41'1 1.7
2018-Feb-15 15:30N 35°43' E 014°41'1 1.7
2018-Feb-15 15:00N 35°44' E 014°40'1 1.8
2018-Feb-15 14:30N 35°44' E 014°39'3 6.9
2018-Feb-15 14:00N 35°41' E 014°41'4 7.5
2018-Feb-15 13:30N 35°38' E 014°43'1 1.8
2018-Feb-15 12:44N 35°39' E 014°42'1 2.0
2018-Feb-15 12:07N 35°40' E 014°42'0 2.0
2018-Feb-15 12:00N 35°41' E 014°42'1 1.9
2018-Feb-15 11:27N 35°42' E 014°41'1 1.8
2018-Feb-15 11:00N 35°42' E 014°41'1 1.7
2018-Feb-15 10:30N 35°43' E 014°40'1 1.5
2018-Feb-15 10:00N 35°43' E 014°40'1 1.5
2018-Feb-15 09:27N 35°44' E 014°39'3 7.4
2018-Feb-15 08:59N 35°41' E 014°41'1 1.2
2018-Feb-15 08:27N 35°41' E 014°41'1 1.6
2018-Feb-15 07:54N 35°41' E 014°40'1 1.5
2018-Feb-15 07:30N 35°42' E 014°40'1 1.5
2018-Feb-15 07:00N 35°43' E 014°40'1 1.5
2018-Feb-15 06:30N 35°43' E 014°39'1 1.3
2018-Feb-15 05:59N 35°44' E 014°39'1 2.6
2018-Feb-15 05:30N 35°44' E 014°40'611.4
2018-Feb-15 05:00N 35°42' E 014°47'510.9
2018-Feb-15 04:30N 35°43' E 014°54'  
Track history (hours):
 
Tides and Currents Weather Stations Pressure Air Temp Water Temp Dewpoint Dewpoint Depression Visibility Wind Speed Wind Dir Waves Ship Positions

CMA CGM Tosca

Last reported at 2018-Feb-19 16:00 UTC. Time now 2018-Feb-19 16:08 UTC.
Position N 41°21' E 002°27'.

Length 334 m; draft 12.5 m.

Type: Cargo ship. MMSI: 228335900.

Date/timePositionNaut miles runAvg speedWind from/ knotsBaromVisibWave heightAir tempDewpointWater temp
2018-Feb-19 16:00N 41°21' E 002°27'816.8
2018-Feb-19 15:30N 41°23' E 002°37'28216.2
2018-Feb-18 22:08N 43°26' E 008°22'216.3
2018-Feb-18 22:00N 43°27' E 008°24'816.1
2018-Feb-18 21:30N 43°31' E 008°34'816.0
2018-Feb-18 21:00N 43°35' E 008°44'816.0
2018-Feb-18 20:30N 43°38' E 008°54'815.9
2018-Feb-18 20:00N 43°42' E 009°03'816.2
2018-Feb-18 19:30N 43°46' E 009°13'816.7
2018-Feb-18 19:00N 43°49' E 009°24'816.9
2018-Feb-18 18:30N 43°54' E 009°34'917.3
2018-Feb-18 18:00N 43°59' E 009°44'713.9
2018-Feb-18 17:31N 44°02' E 009°52'5 9.4
2018-Feb-18 17:00N 44°06' E 009°51'0 0.3
2018-Feb-18 16:28N 44°06' E 009°51'0 0.0
2018-Feb-18 15:58N 44°06' E 009°51'0 0.0
2018-Feb-18 15:28N 44°06' E 009°51'0 0.0
2018-Feb-18 14:58N 44°06' E 009°51'0 0.0
2018-Feb-18 14:28N 44°06' E 009°51'0 0.0
2018-Feb-18 13:58N 44°06' E 009°51'0 0.0
2018-Feb-18 13:28N 44°06' E 009°51'0 0.0
2018-Feb-18 12:58N 44°06' E 009°51'0 0.0
2018-Feb-18 12:28N 44°06' E 009°51'0 0.0
2018-Feb-18 11:58N 44°06' E 009°51'0 0.0
2018-Feb-18 11:28N 44°06' E 009°51'0 0.0
2018-Feb-18 10:58N 44°06' E 009°51'0 0.0
2018-Feb-18 10:28N 44°06' E 009°51'0 0.0
2018-Feb-18 09:58N 44°06' E 009°51'0 0.0
2018-Feb-18 09:28N 44°06' E 009°51'0 0.0
2018-Feb-18 08:58N 44°06' E 009°51'0 0.0
2018-Feb-18 08:28N 44°06' E 009°51'0 0.0
2018-Feb-18 07:58N 44°06' E 009°51'0 0.0
2018-Feb-18 07:28N 44°06' E 009°51'0 0.0
2018-Feb-18 06:58N 44°06' E 009°51'0 0.0
2018-Feb-18 06:28N 44°06' E 009°51'0 0.0
2018-Feb-18 05:58N 44°06' E 009°51'0 0.0
2018-Feb-18 05:28N 44°06' E 009°51'0 0.0
2018-Feb-18 04:58N 44°06' E 009°51'0 0.0
2018-Feb-18 04:28N 44°06' E 009°51'0 0.0
2018-Feb-18 03:58N 44°06' E 009°51'0 0.0
2018-Feb-18 03:28N 44°06' E 009°51'0 0.0
2018-Feb-18 02:58N 44°06' E 009°51'0 0.0
2018-Feb-18 02:28N 44°06' E 009°51'0 1.0
2018-Feb-18 02:00N 44°06' E 009°51'3 6.1
2018-Feb-18 01:30N 44°03' E 009°52'1 3.0
2018-Feb-18 01:00N 44°02' E 009°54'0 0.7
2018-Feb-18 00:30N 44°02' E 009°54'2 3.7
2018-Feb-18 00:00N 44°01' E 009°56'1 2.5
2018-Feb-17 23:30N 43°60' E 009°57'0 0.5
2018-Feb-17 23:00N 43°59' E 009°56'1 2.5
2018-Feb-17 22:30N 43°58' E 009°56'510.5
2018-Feb-17 22:01N 43°53' E 009°53'714.5
2018-Feb-17 21:31N 43°47' E 009°50'714.7
2018-Feb-17 21:01N 43°39' E 009°48'714.6
2018-Feb-17 20:31N 43°32' E 009°45'714.8
2018-Feb-17 20:01N 43°25' E 009°43'714.8
2018-Feb-17 19:31N 43°18' E 009°42'815.0
2018-Feb-17 19:01N 43°10' E 009°40'714.9
2018-Feb-17 18:31N 43°03' E 009°39'2315.1
2018-Feb-17 16:57N 42°40' E 009°48'715.5
2018-Feb-17 16:30N 42°34' E 009°51'43416.2
2018-Feb-16 13:39N 36°01' E 013°48'216.5
2018-Feb-16 13:30N 35°59' E 013°51'916.5
2018-Feb-16 12:56N 35°55' E 014°01'716.6
2018-Feb-16 12:30N 35°50' E 014°08'817.2
2018-Feb-16 12:01N 35°47' E 014°18'917.2
2018-Feb-16 11:30N 35°44' E 014°28'612.3
2018-Feb-16 10:59N 35°48' E 014°34'2 0.1
2018-Feb-15 19:57N 35°49' E 014°33'1 1.4
2018-Feb-15 19:30N 35°49' E 014°33'3 5.2
2018-Feb-15 19:00N 35°47' E 014°36'0 0.6
2018-Feb-15 18:30N 35°47' E 014°36'0 1.0
2018-Feb-15 18:00N 35°47' E 014°36'2 4.8
2018-Feb-15 17:30N 35°45' E 014°38'3 6.7
2018-Feb-15 17:00N 35°43' E 014°41'1 2.3
2018-Feb-15 16:29N 35°42' E 014°42'1 1.7
2018-Feb-15 16:00N 35°43' E 014°41'1 1.7
2018-Feb-15 15:30N 35°43' E 014°41'1 1.7
2018-Feb-15 15:00N 35°44' E 014°40'1 1.8
2018-Feb-15 14:30N 35°44' E 014°39'3 6.9
2018-Feb-15 14:00N 35°41' E 014°41'4 7.5
2018-Feb-15 13:30N 35°38' E 014°43'1 1.8
2018-Feb-15 12:44N 35°39' E 014°42'1 2.0
2018-Feb-15 12:07N 35°40' E 014°42'0 2.0
2018-Feb-15 12:00N 35°41' E 014°42'1 1.9
2018-Feb-15 11:27N 35°42' E 014°41'1 1.8
2018-Feb-15 11:00N 35°42' E 014°41'1 1.7
2018-Feb-15 10:30N 35°43' E 014°40'1 1.5
2018-Feb-15 10:00N 35°43' E 014°40'1 1.5
2018-Feb-15 09:27N 35°44' E 014°39'3 7.4
2018-Feb-15 08:59N 35°41' E 014°41'1 1.2
2018-Feb-15 08:27N 35°41' E 014°41'1 1.6
2018-Feb-15 07:54N 35°41' E 014°40'1 1.5
2018-Feb-15 07:30N 35°42' E 014°40'1 1.5
2018-Feb-15 07:00N 35°43' E 014°40'1 1.5
2018-Feb-15 06:30N 35°43' E 014°39'1 1.3
2018-Feb-15 05:59N 35°44' E 014°39'1 2.6
2018-Feb-15 05:30N 35°44' E 014°40'611.4
2018-Feb-15 05:00N 35°42' E 014°47'510.9
2018-Feb-15 04:30N 35°43' E 014°54'  

Dump ship's entire track history